Attona Domingo — ECCZ — position and weather

sailwx.info

Track history (hours):
 
Tides and Currents Weather Stations Pressure Air Temp Water Temp Dewpoint Dewpoint Depression Visibility Wind Speed Wind Dir Waves Ship Positions

Attona Domingo

Last reported at 2017-Nov-24 12:53 UTC. Time now 2017-Nov-25 00:12 UTC.
Position N 43°23' W 001°47'.

Length 33 m.

Type: Fishing. MMSI: 224087790.

Date/timePositionNaut miles runAvg speedWind from/ knotsBaromVisibWave heightAir tempDewpointWater temp
2017-Nov-24 12:53N 43°23' W 001°47'0 0.0
2017-Nov-24 12:30N 43°23' W 001°47'0 0.0
2017-Nov-24 12:00N 43°23' W 001°47'0 0.0
2017-Nov-24 11:30N 43°23' W 001°47'0 0.0
2017-Nov-24 11:00N 43°23' W 001°47'0 0.0
2017-Nov-24 10:30N 43°23' W 001°47'0 0.0
2017-Nov-24 10:00N 43°23' W 001°47'0 0.0
2017-Nov-24 09:30N 43°23' W 001°47'0 0.0
2017-Nov-24 09:00N 43°23' W 001°47'0 0.0
2017-Nov-24 08:30N 43°23' W 001°47'0 0.0
2017-Nov-23 12:55N 43°23' W 001°47'0 0.0
2017-Nov-23 12:30N 43°23' W 001°47'0 0.0
2017-Nov-23 12:00N 43°23' W 001°47'0 0.0
2017-Nov-23 11:30N 43°23' W 001°47'0 0.0
2017-Nov-23 11:00N 43°23' W 001°47'0 0.0
2017-Nov-23 10:30N 43°23' W 001°47'0 0.0
2017-Nov-23 10:00N 43°23' W 001°47'0 0.0
2017-Nov-23 09:30N 43°23' W 001°47'0 0.0
2017-Nov-23 09:00N 43°23' W 001°47'  
2017-Nov-17 10:26N 43°23' W 001°47'0 0.0
2017-Nov-17 10:00N 43°23' W 001°47'0 0.0
2017-Nov-17 09:30N 43°23' W 001°47'0 0.0
2017-Nov-17 09:00N 43°23' W 001°47'0 0.0
2017-Nov-17 08:30N 43°23' W 001°47'0 0.0
2017-Nov-16 12:03N 43°23' W 001°47'0 0.0
2017-Nov-16 12:01N 43°23' W 001°47'0 0.0
2017-Nov-16 11:31N 43°23' W 001°47'0 0.0
2017-Nov-16 11:00N 43°23' W 001°47'0 0.0
2017-Nov-16 10:31N 43°23' W 001°47'0 0.0
2017-Nov-16 10:00N 43°23' W 001°47'0 0.0
2017-Nov-16 09:30N 43°23' W 001°47'0 0.0
2017-Nov-16 09:01N 43°23' W 001°47'0 0.0
2017-Nov-16 08:30N 43°23' W 001°47'0 0.0
2017-Nov-16 08:00N 43°23' W 001°47'0 0.0
2017-Nov-15 17:23N 43°23' W 001°47'0 0.3
2017-Nov-15 17:00N 43°23' W 001°48'0 0.0
2017-Nov-15 16:30N 43°23' W 001°48'0 0.0
2017-Nov-15 16:00N 43°23' W 001°48'0 0.0
2017-Nov-15 15:30N 43°23' W 001°48'0 0.0
2017-Nov-15 15:00N 43°23' W 001°48'0 0.0
2017-Nov-15 14:30N 43°23' W 001°48'0 0.0
2017-Nov-15 14:00N 43°23' W 001°48'0 0.0
2017-Nov-15 13:30N 43°23' W 001°48'1 1.8
2017-Nov-15 13:00N 43°24' W 001°47'510.8
2017-Nov-15 12:30N 43°29' W 001°45'510.8
2017-Nov-15 12:00N 43°34' W 001°43'510.7
2017-Nov-15 11:30N 43°40' W 001°42'510.1
2017-Nov-15 11:00N 43°45' W 001°41'510.2
2017-Nov-15 10:30N 43°50' W 001°39'510.0
2017-Nov-15 10:00N 43°55' W 001°38'1110.1
2017-Nov-15 08:56N 44°05' W 001°34'510.1
2017-Nov-15 08:27N 44°10' W 001°32'4 9.0
2017-Nov-15 08:00N 44°14' W 001°30'0 0.2
2017-Nov-15 07:18N 44°13' W 001°30'0 0.2
2017-Nov-15 06:44N 44°13' W 001°30'1 2.9
2017-Nov-15 06:29N 44°13' W 001°31'6 1.5
2017-Nov-15 02:48N 44°17' W 001°35'0 0.3
2017-Nov-15 02:25N 44°18' W 001°35'0 0.3
2017-Nov-15 01:59N 44°18' W 001°35'0 0.3
2017-Nov-15 01:30N 44°18' W 001°35'0 0.3
2017-Nov-15 00:53N 44°18' W 001°35'0 0.3
2017-Nov-15 00:30N 44°18' W 001°35'0 0.4
2017-Nov-14 23:50N 44°18' W 001°34'0 0.4
2017-Nov-14 23:30N 44°18' W 001°34'0 0.4
2017-Nov-14 23:00N 44°18' W 001°34'23 2.9
2017-Nov-14 14:58N 43°55' W 001°37'5 9.8
2017-Nov-14 14:27N 43°50' W 001°38'4 9.7
2017-Nov-14 14:00N 43°46' W 001°39'5 9.6
2017-Nov-14 13:30N 43°42' W 001°41'5 9.7
2017-Nov-14 13:00N 43°37' W 001°44'  
Track history (hours):
 
Tides and Currents Weather Stations Pressure Air Temp Water Temp Dewpoint Dewpoint Depression Visibility Wind Speed Wind Dir Waves Ship Positions

Attona Domingo

Last reported at 2017-Nov-24 12:53 UTC. Time now 2017-Nov-25 00:12 UTC.
Position N 43°23' W 001°47'.

Length 33 m.

Type: Fishing. MMSI: 224087790.

Date/timePositionNaut miles runAvg speedWind from/ knotsBaromVisibWave heightAir tempDewpointWater temp
2017-Nov-24 12:53N 43°23' W 001°47'0 0.0
2017-Nov-24 12:30N 43°23' W 001°47'0 0.0
2017-Nov-24 12:00N 43°23' W 001°47'0 0.0
2017-Nov-24 11:30N 43°23' W 001°47'0 0.0
2017-Nov-24 11:00N 43°23' W 001°47'0 0.0
2017-Nov-24 10:30N 43°23' W 001°47'0 0.0
2017-Nov-24 10:00N 43°23' W 001°47'0 0.0
2017-Nov-24 09:30N 43°23' W 001°47'0 0.0
2017-Nov-24 09:00N 43°23' W 001°47'0 0.0
2017-Nov-24 08:30N 43°23' W 001°47'0 0.0
2017-Nov-23 12:55N 43°23' W 001°47'0 0.0
2017-Nov-23 12:30N 43°23' W 001°47'0 0.0
2017-Nov-23 12:00N 43°23' W 001°47'0 0.0
2017-Nov-23 11:30N 43°23' W 001°47'0 0.0
2017-Nov-23 11:00N 43°23' W 001°47'0 0.0
2017-Nov-23 10:30N 43°23' W 001°47'0 0.0
2017-Nov-23 10:00N 43°23' W 001°47'0 0.0
2017-Nov-23 09:30N 43°23' W 001°47'0 0.0
2017-Nov-23 09:00N 43°23' W 001°47'  
2017-Nov-17 10:26N 43°23' W 001°47'0 0.0
2017-Nov-17 10:00N 43°23' W 001°47'0 0.0
2017-Nov-17 09:30N 43°23' W 001°47'0 0.0
2017-Nov-17 09:00N 43°23' W 001°47'0 0.0
2017-Nov-17 08:30N 43°23' W 001°47'0 0.0
2017-Nov-16 12:03N 43°23' W 001°47'0 0.0
2017-Nov-16 12:01N 43°23' W 001°47'0 0.0
2017-Nov-16 11:31N 43°23' W 001°47'0 0.0
2017-Nov-16 11:00N 43°23' W 001°47'0 0.0
2017-Nov-16 10:31N 43°23' W 001°47'0 0.0
2017-Nov-16 10:00N 43°23' W 001°47'0 0.0
2017-Nov-16 09:30N 43°23' W 001°47'0 0.0
2017-Nov-16 09:01N 43°23' W 001°47'0 0.0
2017-Nov-16 08:30N 43°23' W 001°47'0 0.0
2017-Nov-16 08:00N 43°23' W 001°47'0 0.0
2017-Nov-15 17:23N 43°23' W 001°47'0 0.3
2017-Nov-15 17:00N 43°23' W 001°48'0 0.0
2017-Nov-15 16:30N 43°23' W 001°48'0 0.0
2017-Nov-15 16:00N 43°23' W 001°48'0 0.0
2017-Nov-15 15:30N 43°23' W 001°48'0 0.0
2017-Nov-15 15:00N 43°23' W 001°48'0 0.0
2017-Nov-15 14:30N 43°23' W 001°48'0 0.0
2017-Nov-15 14:00N 43°23' W 001°48'0 0.0
2017-Nov-15 13:30N 43°23' W 001°48'1 1.8
2017-Nov-15 13:00N 43°24' W 001°47'510.8
2017-Nov-15 12:30N 43°29' W 001°45'510.8
2017-Nov-15 12:00N 43°34' W 001°43'510.7
2017-Nov-15 11:30N 43°40' W 001°42'510.1
2017-Nov-15 11:00N 43°45' W 001°41'510.2
2017-Nov-15 10:30N 43°50' W 001°39'510.0
2017-Nov-15 10:00N 43°55' W 001°38'1110.1
2017-Nov-15 08:56N 44°05' W 001°34'510.1
2017-Nov-15 08:27N 44°10' W 001°32'4 9.0
2017-Nov-15 08:00N 44°14' W 001°30'0 0.2
2017-Nov-15 07:18N 44°13' W 001°30'0 0.2
2017-Nov-15 06:44N 44°13' W 001°30'1 2.9
2017-Nov-15 06:29N 44°13' W 001°31'6 1.5
2017-Nov-15 02:48N 44°17' W 001°35'0 0.3
2017-Nov-15 02:25N 44°18' W 001°35'0 0.3
2017-Nov-15 01:59N 44°18' W 001°35'0 0.3
2017-Nov-15 01:30N 44°18' W 001°35'0 0.3
2017-Nov-15 00:53N 44°18' W 001°35'0 0.3
2017-Nov-15 00:30N 44°18' W 001°35'0 0.4
2017-Nov-14 23:50N 44°18' W 001°34'0 0.4
2017-Nov-14 23:30N 44°18' W 001°34'0 0.4
2017-Nov-14 23:00N 44°18' W 001°34'23 2.9
2017-Nov-14 14:58N 43°55' W 001°37'5 9.8
2017-Nov-14 14:27N 43°50' W 001°38'4 9.7
2017-Nov-14 14:00N 43°46' W 001°39'5 9.6
2017-Nov-14 13:30N 43°42' W 001°41'5 9.7
2017-Nov-14 13:00N 43°37' W 001°44'  

Dump ship's entire track history